• Join FlightAware (Why Join?)
  • Login
  • US Flag 
10:28PM EDT


 

Airport Tracker/Info


-or-


 

Live Flight TrackerFlight Track Log ✈ ANT507 ✈ 20-Sep-2013 ✈ CYXY - CYYC

Flight Track Log - Related Links

Times and Time Zones

All times are in EDT time to prevent confusion due to time zone crossing. See the ANT507 flight status page for this flight to view local times or setup timezone preferences in your user account.

Time Position Orientation Groundspeed Altitude Reporting Facility
EDT Latitude Longitude Course Direction KTS MPH feet Rate Location/Type
12:34PM 60.3176 -133.7201 122° Southeast  Level Estimated
12:35PM 60.2421 -133.5587 133° Southeast  Level FlightAware Approximate
12:36PM 60.1663 -133.3980 133° Southeast  Level FlightAware Approximate
12:37PM 60.1091 -133.2092 126° Southeast  Level Estimated
12:38PM 60.0350 -133.0460 132° Southeast  Level FlightAware Approximate
12:39PM 59.9608 -132.8835 132° Southeast  Level FlightAware Approximate
12:40PM 59.9031 -132.6965 126° Southeast  Level Estimated
12:41PM 59.8346 -132.5249 128° Southeast  Level FlightAware Approximate
12:42PM 59.7660 -132.3540 129° Southeast  Level FlightAware Approximate
12:43PM 59.6970 -132.1838 129° Southeast  Level FlightAware Approximate
12:44PM 59.6279 -132.0143 129° Southeast  Level FlightAware Approximate
12:45PM 59.5586 -131.8455 129° Southeast  Level FlightAware Approximate
12:46PM 59.4890 -131.6774 129° Southeast  Level FlightAware Approximate
12:47PM 59.4192 -131.5100 129° Southeast  Level FlightAware Approximate
12:48PM 59.3492 -131.3432 129° Southeast  Level FlightAware Approximate
12:49PM 59.2790 -131.1772 130° Southeast  Level FlightAware Approximate
12:50PM 59.2086 -131.0118 130° Southeast  Level FlightAware Approximate
12:51PM 59.1492 -130.8310 123° Southeast  Level Estimated
12:52PM 59.0834 -130.6592 127° Southeast  Level FlightAware Approximate
12:53PM 59.0174 -130.4881 127° Southeast  Level FlightAware Approximate
12:54PM 58.9511 -130.3176 127° Southeast  Level FlightAware Approximate
12:55PM 58.8846 -130.1478 127° Southeast  Level FlightAware Approximate
12:56PM 58.8243 -129.9698 124° Southeast  Level Estimated
12:57PM 58.7622 -129.7944 124° Southeast  Level FlightAware Approximate
12:58PM 58.6999 -129.6197 124° Southeast  Level FlightAware Approximate
12:59PM 58.6374 -129.4455 125° Southeast  Level FlightAware Approximate
01:00PM 58.5746 -129.2720 125° Southeast  Level FlightAware Approximate
01:01PM 58.5117 -129.0991 125° Southeast  Level FlightAware Approximate
01:02PM 58.4484 -128.9268 125° Southeast  Level FlightAware Approximate
01:03PM 58.3850 -128.7552 125° Southeast  Level FlightAware Approximate
01:04PM 58.3213 -128.5841 125° Southeast  Level FlightAware Approximate
01:05PM 58.2574 -128.4137 125° Southeast  Level FlightAware Approximate
01:06PM 58.1933 -128.2439 126° Southeast  Level FlightAware Approximate
01:07PM 58.1289 -128.0747 126° Southeast  Level FlightAware Approximate
01:08PM 58.0643 -127.9061 126° Southeast  Level FlightAware Approximate
01:09PM 57.9995 -127.7381 126° Southeast  Level FlightAware Approximate
01:10PM 57.9345 -127.5708 126° Southeast  Level FlightAware Approximate
01:11PM 57.8692 -127.4040 126° Southeast  Level FlightAware Approximate
01:12PM 57.8054 -127.2356 127° Southeast  Level Estimated
01:13PM 57.7399 -127.0698 126° Southeast  Level FlightAware Approximate
01:14PM 57.6742 -126.9046 127° Southeast  Level FlightAware Approximate
01:15PM 57.6083 -126.7399 127° Southeast  Level FlightAware Approximate
01:16PM 57.5422 -126.5759 127° Southeast  Level FlightAware Approximate
01:17PM 57.4758 -126.4125 127° Southeast  Level FlightAware Approximate
01:18PM 57.4093 -126.2496 127° Southeast  Level FlightAware Approximate
01:19PM 57.3425 -126.0873 127° Southeast  Level FlightAware Approximate
01:20PM 57.2771 -125.9235 127° Southeast  Level Estimated
01:20PM 57.1500 -125.7500 127° Southeast 430 495 37,000  Level Edmonton Center
01:21PM 57.2116 -125.7601 126° Southeast  Level FlightAware Approximate
01:21PM 57.0833 -125.6000 129° Southeast 400 460 37,000  Level Edmonton Center
01:22PM 57.1460 -125.5972 127° Southeast  Level FlightAware Approximate
01:22PM 57.0333 -125.4500 121° Southeast 400 460 37,000  Level Edmonton Center
01:23PM 57.0801 -125.4349 127° Southeast  Level FlightAware Approximate
01:23PM 56.9500 -125.2667 130° Southeast 400 460 37,000  Level Edmonton Center
01:24PM 57.0140 -125.2731 127° Southeast  Level FlightAware Approximate
01:24PM 56.8833 -125.1000 126° Southeast 390 449 37,000  Level Edmonton Center
01:25PM 56.9477 -125.1120 127° Southeast  Level FlightAware Approximate
01:25PM 56.8167 -124.9333 126° Southeast 390 449 37,000  Level Edmonton Center
01:26PM 56.8811 -124.9514 127° Southeast  Level FlightAware Approximate
01:26PM 56.7500 -124.7667 126° Southeast 390 449 37,000  Level Edmonton Center
01:27PM 56.6833 -124.6333 132° Southeast 390 449 37,000  Level Edmonton Center
01:28PM 56.6167 -124.4667 126° Southeast 400 460 37,000  Level Edmonton Center
01:29PM 56.5500 -124.3167 129° Southeast 400 460 37,000  Level Edmonton Center
01:30PM 56.4667 -124.1333 129° Southeast 400 460 37,000  Level Edmonton Center
01:31PM 56.4167 -123.9833 121° Southeast 400 460 37,000  Level Edmonton Center
01:32PM 56.3500 -123.8167 126° Southeast 390 449 37,000  Level Edmonton Center
01:33PM 56.2833 -123.6667 129° Southeast 390 449 37,000  Level Edmonton Center
01:34PM 56.2000 -123.5000 132° Southeast 390 449 37,000  Level Edmonton Center
01:35PM 56.1333 -123.3667 132° Southeast 390 449 37,000  Level Edmonton Center
01:36PM 56.0833 -123.2167 121° Southeast 390 449 37,000  Level Edmonton Center
01:37PM 56.0000 -123.0500 132° Southeast 390 449 37,000  Level Edmonton Center
01:38PM 55.9333 -122.9000 128° Southeast 390 449 37,000  Level Edmonton Center
01:39PM 55.8667 -122.7333 125° Southeast 390 449 37,000  Level Edmonton Center
01:40PM 55.7833 -122.6000 138° Southeast 390 449 37,000  Level Edmonton Center
01:41PM 55.7167 -122.4500 128° Southeast 390 449 37,000  Level Edmonton Center
01:42PM 55.6500 -122.3000 128° Southeast 390 449 37,000  Level Edmonton Center
01:43PM 55.6000 -122.1500 120° Southeast 390 449 37,000  Level Edmonton Center
01:44PM 55.5167 -121.9833 131° Southeast 390 449 37,000  Level Edmonton Center
01:45PM 55.4500 -121.8667 135° Southeast 390 449 37,000  Level Edmonton Center
01:46PM 55.3833 -121.7000 125° Southeast 390 449 37,000  Level Edmonton Center
01:47PM 55.3167 -121.5500 128° Southeast 390 449 37,000  Level Edmonton Center
01:48PM 55.2500 -121.4000 128° Southeast 390 449 37,000  Level Edmonton Center
01:49PM 55.1667 -121.2500 134° Southeast 390 449 37,000  Level Edmonton Center
01:50PM 55.1000 -121.1333 135° Southeast 390 449 37,000  Level Edmonton Center
01:51PM 55.0167 -120.9500 128° Southeast 400 460 37,000  Level Edmonton Center
01:52PM 54.9500 -120.8167 131° Southeast 400 460 37,000  Level Edmonton Center
01:53PM 54.8667 -120.6667 134° Southeast 400 460 37,000  Level Edmonton Center
01:54PM 54.8000 -120.5167 128° Southeast 400 460 37,000  Level Edmonton Center
01:55PM 54.7333 -120.3833 131° Southeast 400 460 37,000  Level Edmonton Center
01:56PM 54.6500 -120.2167 131° Southeast 410 472 37,000  Level Edmonton Center
01:57PM 54.5833 -120.0833 131° Southeast 410 472 37,000  Level Edmonton Center
01:58PM 54.5000 -119.9333 134° Southeast 410 472 37,000  Level Edmonton Center
01:59PM 54.4333 -119.7833 127° Southeast 410 472 37,000  Level Edmonton Center
02:00PM 54.3500 -119.6333 134° Southeast 410 472 37,000  Level Edmonton Center
02:01PM 54.2833 -119.4833 127° Southeast 410 472 37,000  Level Edmonton Center
02:02PM 54.1833 -119.3333 139° Southeast 410 472 37,000  Level Edmonton Center
02:03PM 54.1167 -119.2000 130° Southeast 410 472 37,000  Level Edmonton Center
02:04PM 54.0333 -119.0500 133° Southeast 410 472 37,000  Level Edmonton Center
02:05PM 53.9667 -118.9000 127° Southeast 410 472 37,000  Level Edmonton Center
02:06PM 53.8833 -118.7667 137° Southeast 410 472 37,000  Level Edmonton Center
02:07PM 53.8000 -118.6167 133° Southeast 410 472 37,000  Level Edmonton Center
02:08PM 53.7333 -118.4667 127° Southeast 410 472 37,000  Level Edmonton Center
02:09PM 53.6667 -118.3333 130° Southeast 410 472 37,000  Level Edmonton Center
02:10PM 53.5667 -118.1833 138° Southeast 410 472 37,000  Level Edmonton Center
02:11PM 53.5000 -118.0500 130° Southeast 410 472 37,000  Level Edmonton Center
02:12PM 53.4167 -117.8833 130° Southeast 410 472 37,000  Level Edmonton Center
02:13PM 53.3333 -117.7667 140° Southeast 410 472 37,000  Level Edmonton Center
02:14PM 53.2667 -117.6000 124° Southeast 410 472 37,000  Level Edmonton Center
02:15PM 53.1833 -117.4667 136° Southeast 410 472 37,000  Level Edmonton Center
02:16PM 53.1000 -117.3167 133° Southeast 420 483 37,000  Level Edmonton Center
02:17PM 53.0167 -117.1833 136° Southeast 420 483 37,000  Level Edmonton Center
02:18PM 52.9500 -117.0500 130° Southeast 410 472 37,000  Level Edmonton Center
02:19PM 52.8667 -116.9167 136° Southeast 420 483 37,000  Level Edmonton Center
02:20PM 52.7667 -116.7667 138° Southeast 420 483 37,000  Level Edmonton Center
02:21PM 52.7000 -116.6333 129° Southeast 420 483 37,000  Level Edmonton Center
02:22PM 52.6167 -116.5000 136° Southeast 420 483 37,000  Level Edmonton Center
02:23PM 52.5333 -116.3333 129° Southeast 420 483 37,000  Level Edmonton Center
02:24PM 52.4500 -116.2000 136° Southeast 420 483 37,000  Level Edmonton Center
02:25PM 52.3667 -116.0667 136° Southeast 420 483 37,000  Level Edmonton Center
02:26PM 52.2833 -115.9333 136° Southeast 420 483 37,000 -300 Level Edmonton Center
02:27PM 52.2000 -115.8000 136° Southeast 420 483 36,400 -1,980 Descending Edmonton Center
02:28PM 52.1167 -115.6667 135° Southeast 420 483 33,100 -3,420 Descending Edmonton Center
02:29PM 52.0167 -115.5333 141° Southeast 430 495 29,600 -3,600 Descending Edmonton Center
02:30PM 51.9333 -115.3833 132° Southeast 440 506 25,900 -3,300 Descending Edmonton Center
02:31PM 51.8667 -115.2500 129° Southeast 430 495 23,000 -2,880 Descending Edmonton Center
02:32PM 51.7667 -115.1167 140° Southeast 420 483 20,200 -2,940 Descending Edmonton Center
02:33PM 51.7000 -114.9833 129° Southeast 410 472 17,200 -2,880 Descending Edmonton Center
02:34PM 51.6333 -114.8667 133° Southeast 390 449 14,500 -2,340 Descending Edmonton Center
02:35PM 51.5500 -114.7333 135° Southeast 380 437 12,600 -1,380 Descending Edmonton Center
02:36PM 51.4833 -114.6333 137° Southeast 320 368 11,800 -1,200 Descending Edmonton Center
02:37PM 51.4167 -114.5667 148° Southeast 300 345 10,300 -1,560 Descending Edmonton Center
02:38PM 51.3333 -114.4667 143° Southeast 300 345 8,700 -1,500 Descending Edmonton Center
02:39PM 51.2833 -114.4000 140° Southeast 290 334 7,400 -1,140 Descending Edmonton Center
02:40PM 51.2167 -114.3333 148° Southeast 270 311 6,500 -480 Descending Edmonton Center
02:41PM 51.1667 -114.2667 140° Southeast 220 253 6,500 -600 Level Edmonton Center
02:42PM 51.1333 -114.1833 122° Southeast 210 242 5,300 -1,020 Descending Edmonton Center
02:44PM 51.1000 -114.0667 114° Southeast 140 161 3,600 -900 Descending Edmonton Center